createdAt,value
2023-01-12T00:01:41.621Z,7.71
2023-01-12T00:04:08.801Z,7.82
2023-01-12T00:06:35.181Z,7.72
2023-01-12T00:09:03.242Z,7.81
2023-01-12T00:11:29.637Z,7.78
2023-01-12T00:13:56.127Z,7.74
2023-01-12T00:16:37.609Z,7.95
2023-01-12T00:19:13.152Z,7.88
2023-01-12T00:21:44.986Z,7.78
2023-01-12T00:24:11.360Z,7.84
2023-01-12T00:26:37.740Z,7.66
2023-01-12T00:29:04.127Z,7.70
2023-01-12T00:31:30.537Z,7.66
2023-01-12T00:33:56.917Z,7.72
2023-01-12T00:36:23.313Z,7.64
2023-01-12T00:38:49.692Z,7.68
2023-01-12T00:41:36.048Z,7.64
2023-01-12T00:44:22.120Z,7.66
2023-01-12T00:46:48.494Z,7.83
2023-01-12T00:49:14.909Z,7.73
2023-01-12T00:51:41.490Z,7.66
2023-01-12T00:54:08.444Z,7.63
2023-01-12T00:56:35.871Z,7.59
2023-01-12T00:59:03.161Z,7.55
2023-01-12T01:01:29.988Z,7.56
2023-01-12T01:03:56.468Z,7.44
2023-01-12T01:06:23.246Z,7.62
2023-01-12T01:08:50.351Z,7.72
2023-01-12T01:11:17.331Z,7.72
2023-01-12T01:13:44.471Z,7.77
2023-01-12T01:16:13.541Z,7.80
2023-01-12T01:18:40.605Z,7.93
2023-01-12T01:21:09.888Z,7.94
2023-01-12T01:23:37.889Z,7.94
2023-01-12T01:26:06.996Z,7.96
2023-01-12T01:28:34.339Z,7.99
2023-01-12T01:31:06.018Z,7.96
2023-01-12T01:33:32.451Z,7.92
2023-01-12T01:35:59.699Z,7.95
2023-01-12T01:38:26.575Z,7.95
2023-01-12T01:40:53.558Z,8.07
2023-01-12T01:43:22.040Z,8.03
2023-01-12T01:46:06.720Z,7.80
2023-01-12T01:48:36.696Z,8.00
2023-01-12T01:51:08.686Z,8.04
2023-01-12T01:53:37.657Z,7.99
2023-01-12T01:56:08.215Z,8.01
2023-01-12T01:58:46.785Z,8.07
2023-01-12T02:01:13.160Z,8.06
2023-01-12T02:03:41.031Z,8.08
2023-01-12T02:06:08.774Z,8.12
2023-01-12T02:08:46.703Z,8.13
2023-01-12T02:11:32.514Z,8.13
2023-01-12T02:14:17.383Z,8.08
2023-01-12T02:16:58.827Z,8.10
2023-01-12T02:19:56.527Z,8.18
2023-01-12T02:23:04.139Z,8.16
2023-01-12T02:26:01.687Z,8.18
2023-01-12T02:28:52.916Z,8.25
2023-01-12T02:31:54.290Z,8.30
2023-01-12T02:35:00.238Z,8.29
2023-01-12T02:37:49.176Z,8.30
2023-01-12T02:40:21.444Z,8.32
2023-01-12T02:43:14.989Z,8.29
2023-01-12T02:45:47.890Z,8.27
2023-01-12T02:48:24.332Z,8.21
2023-01-12T02:50:59.827Z,8.20
2023-01-12T02:53:44.863Z,8.29
2023-01-12T02:56:16.850Z,8.22
2023-01-12T02:58:48.321Z,8.22
2023-01-12T03:01:16.891Z,8.24
2023-01-12T03:03:43.731Z,8.11
2023-01-12T03:06:14.750Z,8.07
2023-01-12T03:08:41.136Z,8.18
2023-01-12T03:11:16.695Z,8.22
2023-01-12T03:13:51.949Z,8.18
2023-01-12T03:16:26.187Z,8.19
2023-01-12T03:18:58.789Z,8.31
2023-01-12T03:21:27.799Z,8.27
2023-01-12T03:24:12.928Z,8.24
2023-01-12T03:26:44.333Z,8.29
2023-01-12T03:29:21.795Z,8.23
2023-01-12T03:31:48.598Z,8.22
2023-01-12T03:34:14.993Z,8.23
2023-01-12T03:37:05.757Z,8.20
2023-01-12T03:40:07.581Z,8.19
2023-01-12T03:42:55.510Z,8.20
2023-01-12T03:45:36.733Z,8.20
2023-01-12T03:48:18.807Z,8.24
2023-01-12T03:50:49.580Z,8.20
2023-01-12T03:53:21.147Z,8.31
2023-01-12T03:55:50.191Z,8.30
2023-01-12T03:58:17.552Z,8.31
2023-01-12T04:00:44.534Z,8.29
2023-01-12T04:03:13.128Z,8.29
2023-01-12T04:05:44.598Z,8.30
2023-01-12T04:08:12.799Z,8.35
2023-01-12T04:10:39.226Z,8.31
2023-01-12T04:13:05.602Z,8.34
2023-01-12T04:15:31.965Z,8.37
2023-01-12T04:17:58.301Z,8.35
2023-01-12T04:20:24.687Z,8.31
2023-01-12T04:22:51.051Z,8.32
2023-01-12T04:25:20.094Z,8.29
2023-01-12T04:28:01.555Z,8.28
2023-01-12T04:30:29.670Z,8.32
2023-01-12T04:32:57.482Z,8.32
2023-01-12T04:35:24.746Z,8.31
2023-01-12T04:37:52.509Z,8.29
2023-01-12T04:40:19.598Z,8.35
2023-01-12T04:43:09.886Z,8.33
2023-01-12T04:45:39.675Z,8.38
2023-01-12T04:48:09.554Z,8.41
2023-01-12T04:50:36.148Z,8.44
2023-01-12T04:53:04.398Z,8.50
2023-01-12T04:55:31.532Z,8.52
2023-01-12T04:57:58.312Z,8.39
2023-01-12T05:00:24.939Z,8.48
2023-01-12T05:02:58.140Z,8.51
2023-01-12T05:05:24.802Z,8.44
2023-01-12T05:08:10.047Z,8.47
2023-01-12T05:10:36.500Z,8.47
2023-01-12T05:13:02.860Z,8.41
2023-01-12T05:15:29.305Z,8.43
2023-01-12T05:17:56.690Z,8.41
2023-01-12T05:20:23.273Z,8.44
2023-01-12T05:22:51.335Z,8.43
2023-01-12T05:25:17.755Z,8.40
2023-01-12T05:27:44.481Z,8.37
2023-01-12T05:30:11.036Z,8.32
2023-01-12T05:32:38.359Z,8.28
2023-01-12T05:35:08.818Z,8.34
2023-01-12T05:37:35.634Z,8.28
2023-01-12T05:40:02.088Z,8.30
2023-01-12T05:42:47.120Z,8.26
2023-01-12T05:45:13.533Z,8.24
2023-01-12T05:47:39.898Z,8.25
2023-01-12T05:50:06.519Z,8.22
2023-01-12T05:52:32.901Z,8.22
2023-01-12T05:54:59.305Z,8.23
2023-01-12T05:57:25.673Z,8.22
2023-01-12T05:59:52.033Z,8.23
2023-01-12T06:02:18.874Z,8.14
2023-01-12T06:04:45.338Z,8.22
2023-01-12T06:07:15.951Z,8.21
2023-01-12T06:09:42.633Z,8.23
2023-01-12T06:12:30.216Z,8.21
2023-01-12T06:14:56.625Z,8.23
2023-01-12T06:17:22.973Z,8.28
2023-01-12T06:19:49.344Z,8.30
2023-01-12T06:22:15.739Z,8.31
2023-01-12T06:24:42.171Z,8.30
2023-01-12T06:27:08.941Z,8.31
2023-01-12T06:29:35.296Z,8.31
2023-01-12T06:32:01.760Z,8.34
2023-01-12T06:34:28.192Z,8.36
2023-01-12T06:36:54.541Z,8.39
2023-01-12T06:39:20.916Z,8.41
2023-01-12T06:42:06.014Z,8.43
2023-01-12T06:44:32.387Z,8.46
2023-01-12T06:46:58.740Z,8.46
2023-01-12T06:49:25.149Z,8.42
2023-01-12T06:51:51.669Z,8.42
2023-01-12T06:54:18.813Z,8.54
2023-01-12T06:56:45.471Z,8.58
2023-01-12T06:59:12.550Z,8.45
2023-01-12T07:01:40.501Z,8.66
2023-01-12T07:04:07.617Z,8.67
2023-01-12T07:06:34.259Z,8.74
2023-01-12T07:09:00.842Z,8.74
2023-01-12T07:11:27.207Z,8.72
2023-01-12T07:13:55.166Z,8.79
2023-01-12T07:16:21.557Z,8.76
2023-01-12T07:18:48.135Z,8.79
2023-01-12T07:21:16.727Z,8.82
2023-01-12T07:23:43.681Z,8.85
2023-01-12T07:26:11.090Z,8.83
2023-01-12T07:28:38.053Z,8.86
2023-01-12T07:31:06.061Z,8.88
2023-01-12T07:33:34.216Z,8.93
2023-01-12T07:36:01.824Z,8.96
2023-01-12T07:38:29.429Z,8.98
2023-01-12T07:41:00.449Z,9.01
2023-01-12T07:43:27.366Z,9.05
2023-01-12T07:45:57.523Z,9.08
2023-01-12T07:48:25.014Z,9.07
2023-01-12T07:50:52.012Z,9.11
2023-01-12T07:53:19.531Z,9.14
2023-01-12T07:55:45.982Z,9.18
2023-01-12T07:58:12.610Z,9.20
2023-01-12T08:00:38.985Z,9.28
2023-01-12T08:03:14.901Z,9.28
2023-01-12T08:05:41.524Z,9.24
2023-01-12T08:08:08.324Z,9.31
2023-01-12T08:10:35.358Z,9.30
2023-01-12T08:13:01.887Z,9.28
2023-01-12T08:15:35.545Z,9.37
2023-01-12T08:18:10.370Z,9.35
2023-01-12T08:20:38.047Z,9.29
2023-01-12T08:23:21.892Z,9.39
2023-01-12T08:25:56.166Z,9.43
2023-01-12T08:28:31.576Z,9.47
2023-01-12T08:30:58.046Z,9.54
2023-01-12T08:33:26.543Z,9.59
2023-01-12T08:35:53.343Z,9.56
2023-01-12T08:38:19.757Z,9.62
2023-01-12T08:41:04.530Z,9.65
2023-01-12T08:43:49.440Z,9.73
2023-01-12T08:46:15.917Z,9.78
2023-01-12T08:48:42.308Z,9.78
2023-01-12T08:51:08.860Z,9.81
2023-01-12T08:53:35.766Z,9.92
2023-01-12T08:56:02.387Z,9.92
2023-01-12T08:58:28.746Z,10.04
2023-01-12T09:00:55.323Z,10.10
2023-01-12T09:03:22.210Z,10.08
2023-01-12T09:05:48.702Z,10.21
2023-01-12T09:08:15.084Z,10.27
2023-01-12T09:10:41.455Z,10.30
2023-01-12T09:13:07.816Z,10.35
2023-01-12T09:15:34.190Z,10.38
2023-01-12T09:18:00.565Z,10.48
2023-01-12T09:20:27.033Z,10.48
2023-01-12T09:22:53.454Z,10.53
2023-01-12T09:25:19.830Z,10.51
2023-01-12T09:27:46.245Z,10.70
2023-01-12T09:30:12.760Z,10.77
2023-01-12T09:32:39.099Z,10.78
2023-01-12T09:35:05.998Z,10.67
2023-01-12T09:37:32.405Z,10.60
2023-01-12T09:39:59.720Z,10.77
2023-01-12T09:42:44.795Z,10.76
2023-01-12T09:45:40.203Z,10.74
2023-01-12T09:48:10.379Z,10.77
2023-01-12T09:50:48.516Z,10.75
2023-01-12T09:53:22.345Z,10.79
2023-01-12T09:56:13.491Z,10.81
2023-01-12T09:59:09.066Z,10.86
2023-01-12T10:01:36.854Z,11.02
2023-01-12T10:04:03.939Z,11.09
2023-01-12T10:06:31.132Z,11.13
2023-01-12T10:29:22.112Z,11.06
2023-01-12T10:31:48.619Z,11.04
2023-01-12T10:34:15.051Z,11.00
2023-01-12T10:36:55.702Z,11.08
2023-01-12T17:28:16.787Z,11.86
2023-01-12T17:30:43.286Z,11.75
2023-01-12T17:33:10.882Z,11.85
2023-01-12T17:35:37.318Z,11.72
2023-01-12T17:38:03.868Z,11.67
2023-01-12T17:40:30.244Z,11.71
2023-01-12T17:43:02.713Z,11.83
2023-01-12T17:45:29.247Z,11.88
2023-01-12T17:47:55.776Z,11.78
2023-01-12T17:50:22.177Z,11.86
2023-01-12T17:52:48.527Z,11.78
2023-01-12T17:55:15.630Z,11.81
2023-01-12T17:57:42.067Z,11.85
2023-01-12T18:00:10.226Z,11.82
2023-01-12T18:02:36.680Z,11.68
2023-01-12T18:05:03.247Z,11.71
2023-01-12T18:07:31.864Z,11.77
2023-01-12T18:09:58.260Z,11.68
2023-01-12T18:12:26.051Z,11.78
2023-01-12T18:14:52.492Z,11.75
2023-01-12T18:17:18.856Z,11.85
2023-01-12T18:19:45.235Z,11.95
2023-01-12T18:22:11.660Z,11.89
2023-01-12T18:24:38.045Z,11.91
2023-01-12T18:27:04.472Z,11.75
2023-01-12T18:29:30.874Z,11.81
2023-01-12T18:31:57.229Z,11.85
2023-01-12T18:34:23.597Z,11.87
2023-01-12T18:36:50.067Z,11.93
2023-01-12T18:39:21.427Z,11.83
2023-01-12T18:42:07.406Z,11.86
2023-01-12T18:44:34.423Z,11.95
2023-01-12T18:47:19.856Z,11.84
2023-01-12T18:49:50.149Z,11.83
2023-01-12T18:52:36.551Z,11.70
2023-01-12T18:55:04.585Z,11.68
2023-01-12T18:57:32.311Z,11.77
2023-01-12T19:00:12.218Z,11.71
2023-01-12T19:02:40.316Z,11.70
2023-01-12T19:05:26.277Z,11.65
2023-01-12T19:07:58.363Z,11.64
2023-01-12T19:10:25.829Z,11.66
2023-01-12T19:13:12.191Z,11.60
2023-01-12T19:15:58.621Z,11.59
2023-01-12T19:18:25.354Z,11.64
2023-01-12T19:20:51.727Z,11.75
2023-01-12T19:23:36.889Z,11.70
2023-01-12T19:26:22.080Z,11.70
2023-01-12T19:28:48.459Z,11.64
2023-01-12T19:31:17.532Z,11.72
2023-01-12T19:33:44.366Z,11.83
2023-01-12T19:36:15.577Z,11.84
2023-01-12T19:38:44.231Z,11.78
2023-01-12T19:41:12.666Z,11.81
2023-01-12T19:43:44.987Z,11.75
2023-01-12T19:46:12.969Z,11.77
2023-01-12T19:48:39.487Z,11.63
2023-01-12T19:51:10.686Z,11.82
2023-01-12T19:53:38.983Z,11.81
2023-01-12T19:56:10.390Z,11.82
2023-01-12T19:58:36.950Z,11.79
2023-01-12T20:01:03.431Z,11.89
2023-01-12T20:03:30.126Z,11.77
2023-01-12T20:05:56.500Z,11.86
2023-01-12T20:08:25.218Z,11.90
2023-01-12T20:10:56.669Z,11.91
2023-01-12T20:13:23.048Z,11.93
2023-01-12T20:15:50.354Z,11.83
2023-01-12T20:18:18.658Z,11.86
2023-01-12T20:20:45.410Z,11.90
2023-01-12T20:23:12.789Z,11.88
2023-01-12T20:25:40.684Z,11.84
2023-01-12T20:28:07.515Z,11.91
2023-01-12T20:30:38.562Z,11.91
2023-01-12T20:33:06.518Z,11.92
2023-01-12T20:35:34.857Z,11.90
2023-01-12T20:38:03.928Z,12.08
2023-01-12T20:40:30.420Z,11.98
2023-01-12T20:42:56.769Z,11.83
2023-01-12T20:45:23.123Z,11.69
2023-01-12T20:47:49.586Z,11.83
2023-01-12T20:50:17.850Z,11.75
2023-01-12T20:52:44.270Z,11.84
2023-01-12T20:55:10.620Z,11.79
2023-01-12T20:57:38.922Z,11.87
2023-01-12T21:00:07.338Z,11.95
2023-01-12T21:02:33.719Z,11.77
2023-01-12T21:05:00.052Z,11.95
2023-01-12T21:07:26.399Z,11.91
2023-01-12T21:09:52.786Z,11.93
2023-01-12T21:12:19.670Z,11.83
2023-01-12T21:14:46.037Z,11.82
2023-01-12T21:17:12.531Z,11.97
2023-01-12T21:19:38.996Z,11.88
2023-01-12T21:22:05.421Z,11.76
2023-01-12T21:24:32.217Z,11.79
2023-01-12T21:26:58.655Z,11.79
2023-01-12T21:29:26.139Z,11.89
2023-01-12T21:31:53.084Z,11.87
2023-01-12T21:34:19.524Z,11.93
2023-01-12T21:36:46.154Z,11.86
2023-01-12T21:39:12.580Z,11.96
2023-01-12T21:41:57.699Z,12.00
2023-01-12T21:44:24.071Z,12.04
2023-01-12T21:46:50.412Z,11.89
2023-01-12T21:49:16.787Z,11.83
2023-01-12T21:51:43.165Z,11.85
2023-01-12T21:54:09.636Z,11.87
2023-01-12T21:56:36.235Z,11.77
2023-01-12T21:59:02.731Z,11.93
2023-01-12T22:01:29.239Z,11.83
2023-01-12T22:03:57.014Z,11.73
2023-01-12T22:06:23.447Z,11.74
2023-01-12T22:08:49.818Z,11.67
2023-01-12T22:11:16.968Z,11.78
2023-01-12T22:13:44.267Z,11.79
2023-01-12T22:16:13.686Z,11.55
2023-01-12T22:18:44.336Z,11.56
2023-01-12T22:21:11.016Z,11.46
2023-01-12T22:23:38.497Z,11.24
2023-01-12T22:26:08.801Z,11.01
2023-01-12T22:28:36.772Z,10.98
2023-01-12T22:31:08.708Z,11.06
2023-01-12T22:33:35.110Z,10.98
2023-01-12T22:36:02.857Z,10.97
2023-01-12T22:38:29.208Z,11.09
2023-01-12T22:40:55.563Z,11.17
2023-01-12T22:43:27.908Z,10.95
2023-01-12T22:45:57.677Z,11.21
2023-01-12T22:48:25.721Z,11.09
2023-01-12T22:50:55.766Z,11.17
2023-01-12T22:53:23.935Z,11.05
2023-01-12T22:55:51.367Z,11.16
2023-01-12T22:58:18.256Z,11.03
2023-01-12T23:00:45.406Z,11.05
2023-01-12T23:03:13.349Z,10.87
2023-01-12T23:05:46.275Z,10.81
2023-01-12T23:08:13.855Z,10.52
2023-01-12T23:10:41.191Z,10.63
2023-01-12T23:13:21.144Z,10.47
2023-01-12T23:15:50.128Z,10.50
2023-01-12T23:18:20.165Z,10.50
2023-01-12T23:20:49.113Z,10.49
2023-01-12T23:23:18.013Z,10.53
2023-01-12T23:25:45.590Z,10.40
2023-01-12T23:28:13.866Z,10.31
2023-01-12T23:30:41.210Z,10.31
2023-01-12T23:33:07.781Z,10.12
2023-01-12T23:35:36.766Z,10.00
2023-01-12T23:38:03.647Z,10.08
2023-01-12T23:40:30.018Z,10.01
2023-01-12T23:42:56.427Z,10.02
2023-01-12T23:45:23.865Z,9.97
2023-01-12T23:47:50.924Z,10.04
2023-01-12T23:50:17.771Z,10.02
2023-01-12T23:52:44.303Z,9.97
2023-01-12T23:55:10.671Z,9.86
2023-01-12T23:57:37.017Z,9.78
